sensor_id;sensor_type;location;lat;lon;timestamp;P1;durP1;ratioP1;P2;durP2;ratioP2
67804;SDS011;54603;45.638;11.714;2023-01-13T00:00:49;7.70;;;6.90;;
67804;SDS011;54603;45.638;11.714;2023-01-13T00:03:14;8.50;;;6.50;;
67804;SDS011;54603;45.638;11.714;2023-01-13T00:05:40;9.90;;;6.90;;
67804;SDS011;54603;45.638;11.714;2023-01-13T00:08:05;10.80;;;6.80;;
67804;SDS011;54603;45.638;11.714;2023-01-13T00:10:32;8.30;;;6.80;;
67804;SDS011;54603;45.638;11.714;2023-01-13T00:12:58;7.50;;;6.40;;
67804;SDS011;54603;45.638;11.714;2023-01-13T00:15:24;8.50;;;6.80;;
67804;SDS011;54603;45.638;11.714;2023-01-13T00:17:49;8.10;;;6.70;;
67804;SDS011;54603;45.638;11.714;2023-01-13T00:20:15;8.60;;;6.60;;
67804;SDS011;54603;45.638;11.714;2023-01-13T00:22:40;9.30;;;7.30;;
67804;SDS011;54603;45.638;11.714;2023-01-13T00:25:06;8.90;;;7.30;;
67804;SDS011;54603;45.638;11.714;2023-01-13T00:27:32;8.40;;;7.10;;
67804;SDS011;54603;45.638;11.714;2023-01-13T00:29:58;9.70;;;7.20;;
67804;SDS011;54603;45.638;11.714;2023-01-13T00:32:24;10.40;;;7.20;;
67804;SDS011;54603;45.638;11.714;2023-01-13T00:34:49;10.00;;;7.30;;
67804;SDS011;54603;45.638;11.714;2023-01-13T00:37:15;8.00;;;7.00;;
67804;SDS011;54603;45.638;11.714;2023-01-13T00:39:41;8.60;;;7.30;;
67804;SDS011;54603;45.638;11.714;2023-01-13T00:42:06;9.40;;;7.30;;
67804;SDS011;54603;45.638;11.714;2023-01-13T00:44:50;9.50;;;7.20;;
67804;SDS011;54603;45.638;11.714;2023-01-13T00:47:16;11.80;;;7.60;;
67804;SDS011;54603;45.638;11.714;2023-01-13T00:49:42;9.10;;;6.90;;
67804;SDS011;54603;45.638;11.714;2023-01-13T00:52:09;9.80;;;7.70;;
67804;SDS011;54603;45.638;11.714;2023-01-13T00:54:35;8.70;;;7.20;;
67804;SDS011;54603;45.638;11.714;2023-01-13T00:57:01;8.80;;;7.40;;
67804;SDS011;54603;45.638;11.714;2023-01-13T00:59:27;10.30;;;7.60;;
67804;SDS011;54603;45.638;11.714;2023-01-13T01:01:53;8.50;;;7.00;;
67804;SDS011;54603;45.638;11.714;2023-01-13T01:04:18;9.80;;;7.70;;
67804;SDS011;54603;45.638;11.714;2023-01-13T01:06:44;11.10;;;7.50;;
67804;SDS011;54603;45.638;11.714;2023-01-13T01:09:11;8.70;;;7.20;;
67804;SDS011;54603;45.638;11.714;2023-01-13T01:11:38;8.50;;;7.30;;
67804;SDS011;54603;45.638;11.714;2023-01-13T01:14:05;8.70;;;7.40;;
67804;SDS011;54603;45.638;11.714;2023-01-13T01:16:31;9.90;;;7.30;;
67804;SDS011;54603;45.638;11.714;2023-01-13T01:18:57;10.30;;;7.50;;
67804;SDS011;54603;45.638;11.714;2023-01-13T01:21:23;10.00;;;7.60;;
67804;SDS011;54603;45.638;11.714;2023-01-13T01:23:49;9.50;;;7.40;;
67804;SDS011;54603;45.638;11.714;2023-01-13T01:26:16;8.40;;;7.50;;
67804;SDS011;54603;45.638;11.714;2023-01-13T01:28:43;9.80;;;7.70;;
67804;SDS011;54603;45.638;11.714;2023-01-13T01:31:11;9.70;;;7.50;;
67804;SDS011;54603;45.638;11.714;2023-01-13T01:33:38;8.90;;;7.60;;
67804;SDS011;54603;45.638;11.714;2023-01-13T01:36:05;9.90;;;7.30;;
67804;SDS011;54603;45.638;11.714;2023-01-13T01:38:31;10.80;;;7.70;;
67804;SDS011;54603;45.638;11.714;2023-01-13T01:40:56;10.00;;;7.10;;
67804;SDS011;54603;45.638;11.714;2023-01-13T01:43:22;9.40;;;7.30;;
67804;SDS011;54603;45.638;11.714;2023-01-13T01:46:27;8.40;;;7.40;;
67804;SDS011;54603;45.638;11.714;2023-01-13T01:48:56;11.80;;;8.00;;
67804;SDS011;54603;45.638;11.714;2023-01-13T01:51:25;9.50;;;7.40;;
67804;SDS011;54603;45.638;11.714;2023-01-13T01:53:52;9.70;;;7.80;;
67804;SDS011;54603;45.638;11.714;2023-01-13T01:56:19;8.80;;;7.30;;
67804;SDS011;54603;45.638;11.714;2023-01-13T01:58:46;9.90;;;7.90;;
67804;SDS011;54603;45.638;11.714;2023-01-13T02:01:15;9.00;;;7.60;;
67804;SDS011;54603;45.638;11.714;2023-01-13T02:03:42;9.80;;;7.80;;
67804;SDS011;54603;45.638;11.714;2023-01-13T02:06:11;8.30;;;7.40;;
67804;SDS011;54603;45.638;11.714;2023-01-13T02:08:38;10.30;;;7.50;;
67804;SDS011;54603;45.638;11.714;2023-01-13T02:11:05;9.50;;;7.80;;
67804;SDS011;54603;45.638;11.714;2023-01-13T02:13:50;10.30;;;7.90;;
67804;SDS011;54603;45.638;11.714;2023-01-13T02:16:17;9.10;;;7.60;;
67804;SDS011;54603;45.638;11.714;2023-01-13T02:30:29;9.40;;;7.90;;
67804;SDS011;54603;45.638;11.714;2023-01-13T02:33:35;9.00;;;8.00;;
67804;SDS011;54603;45.638;11.714;2023-01-13T02:44:26;8.40;;;7.50;;
67804;SDS011;54603;45.638;11.714;2023-01-13T02:47:04;10.60;;;8.00;;
67804;SDS011;54603;45.638;11.714;2023-01-13T02:52:13;10.80;;;8.00;;
67804;SDS011;54603;45.638;11.714;2023-01-13T02:54:43;10.60;;;8.00;;
67804;SDS011;54603;45.638;11.714;2023-01-13T02:57:10;10.80;;;7.60;;
67804;SDS011;54603;45.638;11.714;2023-01-13T02:59:36;11.00;;;8.30;;
67804;SDS011;54603;45.638;11.714;2023-01-13T03:02:02;10.40;;;7.70;;
67804;SDS011;54603;45.638;11.714;2023-01-13T03:04:44;9.00;;;7.90;;
67804;SDS011;54603;45.638;11.714;2023-01-13T03:20:37;9.30;;;7.80;;
67804;SDS011;54603;45.638;11.714;2023-01-13T03:23:15;9.20;;;8.10;;
67804;SDS011;54603;45.638;11.714;2023-01-13T03:25:59;10.70;;;8.40;;
67804;SDS011;54603;45.638;11.714;2023-01-13T03:28:35;9.90;;;8.20;;
67804;SDS011;54603;45.638;11.714;2023-01-13T03:31:10;10.40;;;8.50;;
67804;SDS011;54603;45.638;11.714;2023-01-13T03:33:40;9.30;;;7.90;;
67804;SDS011;54603;45.638;11.714;2023-01-13T03:36:19;10.30;;;7.80;;
67804;SDS011;54603;45.638;11.714;2023-01-13T03:38:54;9.20;;;8.00;;
67804;SDS011;54603;45.638;11.714;2023-01-13T03:43:58;9.20;;;8.10;;
67804;SDS011;54603;45.638;11.714;2023-01-13T03:49:41;9.50;;;7.90;;
67804;SDS011;54603;45.638;11.714;2023-01-13T03:52:12;9.70;;;8.30;;
67804;SDS011;54603;45.638;11.714;2023-01-13T03:54:46;10.70;;;8.30;;
67804;SDS011;54603;45.638;11.714;2023-01-13T03:57:15;9.70;;;8.10;;
67804;SDS011;54603;45.638;11.714;2023-01-13T03:59:43;10.40;;;8.20;;
67804;SDS011;54603;45.638;11.714;2023-01-13T04:02:13;9.50;;;8.30;;
67804;SDS011;54603;45.638;11.714;2023-01-13T04:09:52;9.60;;;8.30;;
67804;SDS011;54603;45.638;11.714;2023-01-13T04:12:29;10.70;;;8.70;;
67804;SDS011;54603;45.638;11.714;2023-01-13T04:15:15;13.10;;;8.10;;
67804;SDS011;54603;45.638;11.714;2023-01-13T04:17:42;11.50;;;8.30;;
67804;SDS011;54603;45.638;11.714;2023-01-13T04:20:08;9.50;;;8.40;;
67804;SDS011;54603;45.638;11.714;2023-01-13T04:22:34;9.50;;;8.10;;
67804;SDS011;54603;45.638;11.714;2023-01-13T04:24:59;9.60;;;8.30;;
67804;SDS011;54603;45.638;11.714;2023-01-13T04:27:25;10.80;;;8.70;;
67804;SDS011;54603;45.638;11.714;2023-01-13T04:29:50;9.10;;;8.10;;
67804;SDS011;54603;45.638;11.714;2023-01-13T04:32:18;10.00;;;8.00;;
67804;SDS011;54603;45.638;11.714;2023-01-13T04:34:50;9.90;;;8.20;;
67804;SDS011;54603;45.638;11.714;2023-01-13T04:37:20;9.80;;;8.10;;
67804;SDS011;54603;45.638;11.714;2023-01-13T04:39:47;9.80;;;8.10;;
67804;SDS011;54603;45.638;11.714;2023-01-13T04:42:13;10.40;;;8.50;;
67804;SDS011;54603;45.638;11.714;2023-01-13T04:44:39;9.50;;;8.50;;
67804;SDS011;54603;45.638;11.714;2023-01-13T04:47:05;9.60;;;8.10;;
67804;SDS011;54603;45.638;11.714;2023-01-13T04:49:30;11.10;;;8.50;;
67804;SDS011;54603;45.638;11.714;2023-01-13T04:51:56;9.30;;;8.30;;
67804;SDS011;54603;45.638;11.714;2023-01-13T04:54:21;8.90;;;7.50;;
67804;SDS011;54603;45.638;11.714;2023-01-13T04:56:47;10.90;;;8.50;;
67804;SDS011;54603;45.638;11.714;2023-01-13T04:59:12;11.00;;;8.40;;
67804;SDS011;54603;45.638;11.714;2023-01-13T05:01:38;10.00;;;8.30;;
67804;SDS011;54603;45.638;11.714;2023-01-13T05:04:04;10.50;;;8.70;;
67804;SDS011;54603;45.638;11.714;2023-01-13T05:06:30;9.80;;;8.20;;
67804;SDS011;54603;45.638;11.714;2023-01-13T05:08:56;10.00;;;8.30;;
67804;SDS011;54603;45.638;11.714;2023-01-13T05:11:21;10.20;;;8.20;;
67804;SDS011;54603;45.638;11.714;2023-01-13T05:14:06;10.10;;;8.10;;
67804;SDS011;54603;45.638;11.714;2023-01-13T05:16:50;10.50;;;8.40;;
67804;SDS011;54603;45.638;11.714;2023-01-13T05:19:30;10.70;;;8.30;;
67804;SDS011;54603;45.638;11.714;2023-01-13T05:21:57;9.50;;;8.00;;
67804;SDS011;54603;45.638;11.714;2023-01-13T05:24:42;9.40;;;8.00;;
67804;SDS011;54603;45.638;11.714;2023-01-13T05:27:26;9.90;;;7.70;;
67804;SDS011;54603;45.638;11.714;2023-01-13T05:29:52;10.70;;;8.60;;
67804;SDS011;54603;45.638;11.714;2023-01-13T05:32:18;10.20;;;8.10;;
67804;SDS011;54603;45.638;11.714;2023-01-13T05:34:44;8.70;;;7.80;;
67804;SDS011;54603;45.638;11.714;2023-01-13T05:37:10;9.80;;;7.90;;
67804;SDS011;54603;45.638;11.714;2023-01-13T05:39:37;10.10;;;8.10;;
67804;SDS011;54603;45.638;11.714;2023-01-13T05:42:22;11.00;;;8.30;;
67804;SDS011;54603;45.638;11.714;2023-01-13T05:45:06;10.20;;;8.40;;
67804;SDS011;54603;45.638;11.714;2023-01-13T05:47:32;8.70;;;7.80;;
67804;SDS011;54603;45.638;11.714;2023-01-13T05:49:58;10.30;;;8.10;;
67804;SDS011;54603;45.638;11.714;2023-01-13T05:52:23;11.00;;;8.50;;
67804;SDS011;54603;45.638;11.714;2023-01-13T05:54:49;10.10;;;8.10;;
67804;SDS011;54603;45.638;11.714;2023-01-13T05:57:15;10.20;;;7.80;;
67804;SDS011;54603;45.638;11.714;2023-01-13T05:59:41;9.50;;;8.00;;
67804;SDS011;54603;45.638;11.714;2023-01-13T06:02:06;9.50;;;8.20;;
67804;SDS011;54603;45.638;11.714;2023-01-13T06:04:32;10.20;;;7.80;;
67804;SDS011;54603;45.638;11.714;2023-01-13T06:06:57;8.50;;;7.60;;
67804;SDS011;54603;45.638;11.714;2023-01-13T06:09:23;9.90;;;8.30;;
67804;SDS011;54603;45.638;11.714;2023-01-13T06:11:48;11.30;;;8.40;;
67804;SDS011;54603;45.638;11.714;2023-01-13T06:14:14;9.50;;;7.50;;
67804;SDS011;54603;45.638;11.714;2023-01-13T06:16:39;10.90;;;7.90;;
67804;SDS011;54603;45.638;11.714;2023-01-13T06:19:05;10.50;;;8.40;;
67804;SDS011;54603;45.638;11.714;2023-01-13T06:21:37;9.20;;;7.80;;
67804;SDS011;54603;45.638;11.714;2023-01-13T06:24:03;10.20;;;7.90;;
67804;SDS011;54603;45.638;11.714;2023-01-13T06:26:30;9.20;;;7.80;;
67804;SDS011;54603;45.638;11.714;2023-01-13T06:28:58;10.40;;;8.30;;
67804;SDS011;54603;45.638;11.714;2023-01-13T06:31:24;9.90;;;8.30;;
67804;SDS011;54603;45.638;11.714;2023-01-13T06:33:54;9.20;;;7.40;;
67804;SDS011;54603;45.638;11.714;2023-01-13T06:36:23;9.40;;;8.20;;
67804;SDS011;54603;45.638;11.714;2023-01-13T06:38:52;10.60;;;8.20;;
67804;SDS011;54603;45.638;11.714;2023-01-13T06:41:19;9.80;;;7.70;;
67804;SDS011;54603;45.638;11.714;2023-01-13T06:44:05;10.80;;;7.30;;
67804;SDS011;54603;45.638;11.714;2023-01-13T06:46:30;8.40;;;7.40;;
67804;SDS011;54603;45.638;11.714;2023-01-13T06:48:56;9.30;;;7.60;;
67804;SDS011;54603;45.638;11.714;2023-01-13T06:51:21;8.80;;;7.80;;
67804;SDS011;54603;45.638;11.714;2023-01-13T06:53:47;10.30;;;7.70;;
67804;SDS011;54603;45.638;11.714;2023-01-13T06:56:12;10.00;;;7.40;;
67804;SDS011;54603;45.638;11.714;2023-01-13T06:58:38;9.00;;;8.00;;
67804;SDS011;54603;45.638;11.714;2023-01-13T07:01:04;9.50;;;7.40;;
67804;SDS011;54603;45.638;11.714;2023-01-13T07:03:30;8.60;;;7.60;;
67804;SDS011;54603;45.638;11.714;2023-01-13T07:06:06;8.60;;;7.40;;
67804;SDS011;54603;45.638;11.714;2023-01-13T07:08:31;9.30;;;7.60;;
67804;SDS011;54603;45.638;11.714;2023-01-13T07:10:57;10.20;;;7.80;;
67804;SDS011;54603;45.638;11.714;2023-01-13T07:13:23;9.30;;;7.60;;
67804;SDS011;54603;45.638;11.714;2023-01-13T07:16:09;8.80;;;7.30;;
67804;SDS011;54603;45.638;11.714;2023-01-13T07:18:37;11.20;;;7.80;;
67804;SDS011;54603;45.638;11.714;2023-01-13T07:21:04;9.90;;;7.80;;
67804;SDS011;54603;45.638;11.714;2023-01-13T07:23:33;10.20;;;8.00;;
67804;SDS011;54603;45.638;11.714;2023-01-13T07:26:00;9.80;;;8.10;;
67804;SDS011;54603;45.638;11.714;2023-01-13T07:28:27;9.80;;;7.10;;
67804;SDS011;54603;45.638;11.714;2023-01-13T07:30:56;10.10;;;7.80;;
67804;SDS011;54603;45.638;11.714;2023-01-13T07:33:24;9.30;;;7.70;;
67804;SDS011;54603;45.638;11.714;2023-01-13T07:35:57;9.40;;;7.20;;
67804;SDS011;54603;45.638;11.714;2023-01-13T07:38:25;10.00;;;8.00;;
67804;SDS011;54603;45.638;11.714;2023-01-13T07:40:53;12.00;;;8.10;;
67804;SDS011;54603;45.638;11.714;2023-01-13T07:43:19;9.70;;;7.60;;
67804;SDS011;54603;45.638;11.714;2023-01-13T07:45:57;11.00;;;7.80;;
67804;SDS011;54603;45.638;11.714;2023-01-13T07:48:27;8.50;;;7.50;;
67804;SDS011;54603;45.638;11.714;2023-01-13T07:50:54;8.50;;;7.30;;
67804;SDS011;54603;45.638;11.714;2023-01-13T07:53:24;10.30;;;7.80;;
67804;SDS011;54603;45.638;11.714;2023-01-13T07:56:09;10.10;;;7.70;;
67804;SDS011;54603;45.638;11.714;2023-01-13T07:58:52;10.20;;;8.20;;
67804;SDS011;54603;45.638;11.714;2023-01-13T08:01:24;8.90;;;7.90;;
67804;SDS011;54603;45.638;11.714;2023-01-13T08:03:58;10.70;;;8.20;;
67804;SDS011;54603;45.638;11.714;2023-01-13T08:06:25;9.80;;;7.80;;
67804;SDS011;54603;45.638;11.714;2023-01-13T08:08:52;9.20;;;7.80;;
67804;SDS011;54603;45.638;11.714;2023-01-13T08:11:17;9.40;;;7.40;;
67804;SDS011;54603;45.638;11.714;2023-01-13T08:13:44;12.20;;;7.40;;
67804;SDS011;54603;45.638;11.714;2023-01-13T08:16:24;10.50;;;8.00;;
67804;SDS011;54603;45.638;11.714;2023-01-13T08:19:07;9.40;;;7.60;;
67804;SDS011;54603;45.638;11.714;2023-01-13T08:21:35;12.10;;;7.80;;
67804;SDS011;54603;45.638;11.714;2023-01-13T08:24:03;9.40;;;7.40;;
67804;SDS011;54603;45.638;11.714;2023-01-13T08:26:29;26.00;;;7.30;;
67804;SDS011;54603;45.638;11.714;2023-01-13T08:28:54;9.60;;;7.50;;
67804;SDS011;54603;45.638;11.714;2023-01-13T08:31:20;12.90;;;7.40;;
67804;SDS011;54603;45.638;11.714;2023-01-13T08:33:45;9.80;;;7.50;;
67804;SDS011;54603;45.638;11.714;2023-01-13T08:36:11;10.80;;;7.50;;
67804;SDS011;54603;45.638;11.714;2023-01-13T08:38:38;10.40;;;7.80;;
67804;SDS011;54603;45.638;11.714;2023-01-13T08:41:08;9.80;;;7.50;;
67804;SDS011;54603;45.638;11.714;2023-01-13T08:43:35;10.50;;;7.50;;
67804;SDS011;54603;45.638;11.714;2023-01-13T08:46:01;9.20;;;7.70;;
67804;SDS011;54603;45.638;11.714;2023-01-13T08:48:31;9.70;;;7.40;;
67804;SDS011;54603;45.638;11.714;2023-01-13T08:51:01;9.70;;;7.20;;
67804;SDS011;54603;45.638;11.714;2023-01-13T08:53:29;9.70;;;7.60;;
67804;SDS011;54603;45.638;11.714;2023-01-13T08:55:56;9.90;;;7.70;;
67804;SDS011;54603;45.638;11.714;2023-01-13T08:58:22;9.60;;;7.40;;
67804;SDS011;54603;45.638;11.714;2023-01-13T09:00:50;9.30;;;7.90;;
67804;SDS011;54603;45.638;11.714;2023-01-13T09:03:16;11.10;;;7.70;;
67804;SDS011;54603;45.638;11.714;2023-01-13T09:05:43;12.10;;;7.50;;
67804;SDS011;54603;45.638;11.714;2023-01-13T09:08:08;19.30;;;7.90;;
67804;SDS011;54603;45.638;11.714;2023-01-13T09:10:34;9.40;;;7.70;;
67804;SDS011;54603;45.638;11.714;2023-01-13T09:12:59;10.10;;;7.90;;
67804;SDS011;54603;45.638;11.714;2023-01-13T09:15:38;10.20;;;7.70;;
67804;SDS011;54603;45.638;11.714;2023-01-13T09:18:04;8.40;;;7.10;;
67804;SDS011;54603;45.638;11.714;2023-01-13T09:20:30;11.10;;;7.70;;
67804;SDS011;54603;45.638;11.714;2023-01-13T09:22:56;10.20;;;7.90;;
67804;SDS011;54603;45.638;11.714;2023-01-13T09:25:21;16.40;;;10.50;;
67804;SDS011;54603;45.638;11.714;2023-01-13T09:27:47;14.80;;;10.00;;
67804;SDS011;54603;45.638;11.714;2023-01-13T09:30:12;17.40;;;12.60;;
67804;SDS011;54603;45.638;11.714;2023-01-13T09:32:38;14.10;;;11.00;;
67804;SDS011;54603;45.638;11.714;2023-01-13T09:35:05;12.30;;;10.30;;
67804;SDS011;54603;45.638;11.714;2023-01-13T09:37:35;22.70;;;11.70;;
67804;SDS011;54603;45.638;11.714;2023-01-13T09:40:05;21.50;;;16.10;;
67804;SDS011;54603;45.638;11.714;2023-01-13T09:45:45;18.50;;;14.10;;
67804;SDS011;54603;45.638;11.714;2023-01-13T09:50:58;21.60;;;14.90;;
67804;SDS011;54603;45.638;11.714;2023-01-13T09:53:31;21.00;;;15.40;;
67804;SDS011;54603;45.638;11.714;2023-01-13T09:56:00;22.40;;;14.50;;
67804;SDS011;54603;45.638;11.714;2023-01-13T09:58:34;19.80;;;14.30;;
67804;SDS011;54603;45.638;11.714;2023-01-13T10:03:38;18.20;;;14.00;;
67804;SDS011;54603;45.638;11.714;2023-01-13T10:06:10;19.60;;;15.30;;
67804;SDS011;54603;45.638;11.714;2023-01-13T10:08:38;18.30;;;15.70;;
67804;SDS011;54603;45.638;11.714;2023-01-13T10:11:06;24.10;;;16.70;;
67804;SDS011;54603;45.638;11.714;2023-01-13T10:14:03;19.70;;;16.00;;
67804;SDS011;54603;45.638;11.714;2023-01-13T10:16:47;20.30;;;15.50;;
67804;SDS011;54603;45.638;11.714;2023-01-13T10:19:17;20.70;;;16.70;;
67804;SDS011;54603;45.638;11.714;2023-01-13T10:22:10;24.20;;;16.30;;
67804;SDS011;54603;45.638;11.714;2023-01-13T10:27:50;21.20;;;15.60;;
67804;SDS011;54603;45.638;11.714;2023-01-13T10:30:22;21.20;;;15.80;;
67804;SDS011;54603;45.638;11.714;2023-01-13T10:32:56;19.80;;;15.60;;
67804;SDS011;54603;45.638;11.714;2023-01-13T10:38:21;20.10;;;15.80;;
67804;SDS011;54603;45.638;11.714;2023-01-13T10:41:19;18.90;;;15.20;;
67804;SDS011;54603;45.638;11.714;2023-01-13T10:46:52;16.10;;;14.00;;
67804;SDS011;54603;45.638;11.714;2023-01-13T10:49:24;20.80;;;16.20;;
67804;SDS011;54603;45.638;11.714;2023-01-13T10:51:57;19.30;;;14.70;;
67804;SDS011;54603;45.638;11.714;2023-01-13T10:54:24;21.20;;;15.30;;
67804;SDS011;54603;45.638;11.714;2023-01-13T10:59:45;19.70;;;14.70;;
67804;SDS011;54603;45.638;11.714;2023-01-13T11:16:13;17.30;;;14.30;;
67804;SDS011;54603;45.638;11.714;2023-01-13T11:18:42;22.30;;;15.20;;
67804;SDS011;54603;45.638;11.714;2023-01-13T11:21:40;16.60;;;14.30;;
67804;SDS011;54603;45.638;11.714;2023-01-13T11:24:28;18.60;;;14.40;;
67804;SDS011;54603;45.638;11.714;2023-01-13T11:29:30;19.40;;;14.10;;
67804;SDS011;54603;45.638;11.714;2023-01-13T11:32:10;17.20;;;14.00;;
67804;SDS011;54603;45.638;11.714;2023-01-13T11:34:39;18.10;;;14.20;;
67804;SDS011;54603;45.638;11.714;2023-01-13T11:37:11;16.90;;;13.80;;
67804;SDS011;54603;45.638;11.714;2023-01-13T11:39:53;17.70;;;13.80;;
67804;SDS011;54603;45.638;11.714;2023-01-13T11:42:50;16.90;;;13.20;;
67804;SDS011;54603;45.638;11.714;2023-01-13T11:45:23;17.50;;;14.20;;
67804;SDS011;54603;45.638;11.714;2023-01-13T11:48:01;21.00;;;15.20;;
67804;SDS011;54603;45.638;11.714;2023-01-13T11:50:31;21.70;;;14.50;;
67804;SDS011;54603;45.638;11.714;2023-01-13T11:53:03;20.10;;;16.20;;
67804;SDS011;54603;45.638;11.714;2023-01-13T11:55:54;23.90;;;18.00;;
67804;SDS011;54603;45.638;11.714;2023-01-13T12:03:37;24.60;;;20.10;;
67804;SDS011;54603;45.638;11.714;2023-01-13T12:12:00;39.70;;;29.40;;
67804;SDS011;54603;45.638;11.714;2023-01-13T12:26:24;40.80;;;29.60;;
67804;SDS011;54603;45.638;11.714;2023-01-13T12:31:32;41.10;;;28.60;;
67804;SDS011;54603;45.638;11.714;2023-01-13T12:39:17;33.90;;;26.80;;
67804;SDS011;54603;45.638;11.714;2023-01-13T12:42:07;39.40;;;26.10;;
67804;SDS011;54603;45.638;11.714;2023-01-13T12:47:39;33.90;;;26.10;;
67804;SDS011;54603;45.638;11.714;2023-01-13T12:52:46;32.20;;;24.70;;
67804;SDS011;54603;45.638;11.714;2023-01-13T12:55:14;31.60;;;25.30;;
67804;SDS011;54603;45.638;11.714;2023-01-13T13:00:36;29.50;;;25.00;;
67804;SDS011;54603;45.638;11.714;2023-01-13T13:03:32;31.00;;;24.30;;
67804;SDS011;54603;45.638;11.714;2023-01-13T13:06:06;32.50;;;24.50;;
67804;SDS011;54603;45.638;11.714;2023-01-13T13:08:57;32.00;;;24.60;;
67804;SDS011;54603;45.638;11.714;2023-01-13T13:36:06;28.30;;;23.40;;
67804;SDS011;54603;45.638;11.714;2023-01-13T13:41:42;29.60;;;24.70;;
67804;SDS011;54603;45.638;11.714;2023-01-13T13:44:29;37.10;;;24.90;;
67804;SDS011;54603;45.638;11.714;2023-01-13T13:47:15;29.70;;;25.10;;
67804;SDS011;54603;45.638;11.714;2023-01-13T13:49:42;32.10;;;24.50;;
67804;SDS011;54603;45.638;11.714;2023-01-13T13:52:26;32.10;;;24.50;;
67804;SDS011;54603;45.638;11.714;2023-01-13T13:55:16;29.20;;;25.20;;
67804;SDS011;54603;45.638;11.714;2023-01-13T13:57:48;30.70;;;24.30;;
67804;SDS011;54603;45.638;11.714;2023-01-13T14:05:36;29.50;;;23.60;;
67804;SDS011;54603;45.638;11.714;2023-01-13T14:08:11;27.40;;;22.10;;
67804;SDS011;54603;45.638;11.714;2023-01-13T14:10:40;29.50;;;23.60;;
67804;SDS011;54603;45.638;11.714;2023-01-13T14:13:14;28.70;;;23.20;;
67804;SDS011;54603;45.638;11.714;2023-01-13T14:15:48;28.00;;;22.80;;
67804;SDS011;54603;45.638;11.714;2023-01-13T14:18:20;29.40;;;22.80;;
67804;SDS011;54603;45.638;11.714;2023-01-13T14:20:59;29.40;;;23.60;;
67804;SDS011;54603;45.638;11.714;2023-01-13T14:23:29;27.70;;;22.10;;
67804;SDS011;54603;45.638;11.714;2023-01-13T14:28:59;28.00;;;22.30;;
67804;SDS011;54603;45.638;11.714;2023-01-13T14:31:25;28.60;;;22.60;;
67804;SDS011;54603;45.638;11.714;2023-01-13T14:33:52;28.70;;;21.90;;
67804;SDS011;54603;45.638;11.714;2023-01-13T14:41:31;27.40;;;21.60;;
67804;SDS011;54603;45.638;11.714;2023-01-13T14:43:59;26.40;;;20.80;;
67804;SDS011;54603;45.638;11.714;2023-01-13T14:46:37;26.40;;;21.50;;
67804;SDS011;54603;45.638;11.714;2023-01-13T14:51:48;30.00;;;21.10;;
67804;SDS011;54603;45.638;11.714;2023-01-13T14:57:12;25.40;;;19.80;;
67804;SDS011;54603;45.638;11.714;2023-01-13T15:08:02;24.90;;;19.50;;
67804;SDS011;54603;45.638;11.714;2023-01-13T15:10:47;27.80;;;19.90;;
67804;SDS011;54603;45.638;11.714;2023-01-13T15:15:57;24.40;;;19.30;;
67804;SDS011;54603;45.638;11.714;2023-01-13T15:18:24;27.00;;;19.90;;
67804;SDS011;54603;45.638;11.714;2023-01-13T15:20:50;27.20;;;19.70;;
67804;SDS011;54603;45.638;11.714;2023-01-13T15:23:17;24.50;;;19.70;;
67804;SDS011;54603;45.638;11.714;2023-01-13T15:25:44;26.20;;;19.60;;
67804;SDS011;54603;45.638;11.714;2023-01-13T15:28:20;23.20;;;19.10;;
67804;SDS011;54603;45.638;11.714;2023-01-13T15:30:48;22.10;;;18.40;;
67804;SDS011;54603;45.638;11.714;2023-01-13T15:33:14;22.70;;;18.50;;
67804;SDS011;54603;45.638;11.714;2023-01-13T15:35:45;24.10;;;18.50;;
67804;SDS011;54603;45.638;11.714;2023-01-13T15:38:13;21.70;;;17.80;;
67804;SDS011;54603;45.638;11.714;2023-01-13T15:40:40;22.70;;;18.10;;
67804;SDS011;54603;45.638;11.714;2023-01-13T15:43:09;23.60;;;18.90;;
67804;SDS011;54603;45.638;11.714;2023-01-13T15:45:58;22.30;;;17.30;;
67804;SDS011;54603;45.638;11.714;2023-01-13T15:48:43;22.70;;;18.50;;
67804;SDS011;54603;45.638;11.714;2023-01-13T15:51:11;22.60;;;18.20;;
67804;SDS011;54603;45.638;11.714;2023-01-13T15:53:38;22.30;;;17.60;;
67804;SDS011;54603;45.638;11.714;2023-01-13T15:56:05;23.60;;;18.90;;
67804;SDS011;54603;45.638;11.714;2023-01-13T15:58:33;20.80;;;16.90;;
67804;SDS011;54603;45.638;11.714;2023-01-13T16:00:59;19.80;;;17.00;;
67804;SDS011;54603;45.638;11.714;2023-01-13T16:03:24;22.30;;;18.00;;
67804;SDS011;54603;45.638;11.714;2023-01-13T16:05:50;21.70;;;17.20;;
67804;SDS011;54603;45.638;11.714;2023-01-13T16:08:16;20.80;;;17.60;;
67804;SDS011;54603;45.638;11.714;2023-01-13T16:10:43;23.00;;;17.20;;
67804;SDS011;54603;45.638;11.714;2023-01-13T16:13:11;19.00;;;16.50;;
67804;SDS011;54603;45.638;11.714;2023-01-13T16:15:47;21.50;;;16.50;;
67804;SDS011;54603;45.638;11.714;2023-01-13T16:18:17;20.40;;;16.80;;
67804;SDS011;54603;45.638;11.714;2023-01-13T16:20:48;21.40;;;16.10;;
67804;SDS011;54603;45.638;11.714;2023-01-13T16:23:17;21.00;;;16.70;;
67804;SDS011;54603;45.638;11.714;2023-01-13T16:25:43;19.80;;;16.10;;
67804;SDS011;54603;45.638;11.714;2023-01-13T16:28:18;25.10;;;16.20;;
67804;SDS011;54603;45.638;11.714;2023-01-13T16:30:45;19.50;;;15.80;;
67804;SDS011;54603;45.638;11.714;2023-01-13T16:33:10;20.70;;;16.30;;
67804;SDS011;54603;45.638;11.714;2023-01-13T16:35:36;21.30;;;16.20;;
67804;SDS011;54603;45.638;11.714;2023-01-13T16:38:01;18.50;;;16.10;;
67804;SDS011;54603;45.638;11.714;2023-01-13T16:40:28;20.00;;;15.60;;
67804;SDS011;54603;45.638;11.714;2023-01-13T16:42:57;20.30;;;15.60;;
67804;SDS011;54603;45.638;11.714;2023-01-13T16:45:30;20.00;;;16.00;;
67804;SDS011;54603;45.638;11.714;2023-01-13T16:47:57;17.70;;;15.00;;
67804;SDS011;54603;45.638;11.714;2023-01-13T16:52:55;18.60;;;15.90;;
67804;SDS011;54603;45.638;11.714;2023-01-13T16:55:20;17.00;;;14.50;;
67804;SDS011;54603;45.638;11.714;2023-01-13T16:57:46;19.10;;;14.80;;
67804;SDS011;54603;45.638;11.714;2023-01-13T17:00:12;17.70;;;14.80;;
67804;SDS011;54603;45.638;11.714;2023-01-13T17:02:38;19.20;;;15.80;;
67804;SDS011;54603;45.638;11.714;2023-01-13T17:05:04;18.20;;;14.80;;
67804;SDS011;54603;45.638;11.714;2023-01-13T17:07:30;20.10;;;15.00;;
67804;SDS011;54603;45.638;11.714;2023-01-13T17:09:56;18.40;;;14.60;;
67804;SDS011;54603;45.638;11.714;2023-01-13T17:12:21;17.40;;;14.10;;
67804;SDS011;54603;45.638;11.714;2023-01-13T17:14:47;18.20;;;14.60;;
67804;SDS011;54603;45.638;11.714;2023-01-13T17:17:18;18.50;;;14.60;;
67804;SDS011;54603;45.638;11.714;2023-01-13T17:19:46;17.80;;;14.60;;
67804;SDS011;54603;45.638;11.714;2023-01-13T17:22:12;15.50;;;13.70;;
67804;SDS011;54603;45.638;11.714;2023-01-13T17:24:38;16.90;;;13.70;;
67804;SDS011;54603;45.638;11.714;2023-01-13T17:27:04;17.20;;;13.80;;
67804;SDS011;54603;45.638;11.714;2023-01-13T17:29:29;19.20;;;14.60;;
67804;SDS011;54603;45.638;11.714;2023-01-13T17:31:57;19.90;;;13.70;;
67804;SDS011;54603;45.638;11.714;2023-01-13T17:34:22;18.10;;;13.60;;
67804;SDS011;54603;45.638;11.714;2023-01-13T17:36:48;17.50;;;14.10;;
67804;SDS011;54603;45.638;11.714;2023-01-13T17:39:16;18.20;;;14.10;;
67804;SDS011;54603;45.638;11.714;2023-01-13T17:41:45;16.40;;;13.90;;